createdAt,value
2018-07-24T00:00:48.347Z,4.30
2018-07-24T00:03:16.416Z,4.00
2018-07-24T00:05:44.540Z,4.57
2018-07-24T00:08:12.484Z,4.73
2018-07-24T00:10:40.611Z,4.70
2018-07-24T00:13:09.236Z,4.30
2018-07-24T00:15:37.558Z,3.97
2018-07-24T00:18:05.639Z,3.57
2018-07-24T00:20:33.826Z,5.00
2018-07-24T00:23:01.944Z,4.80
2018-07-24T00:25:30.092Z,4.60
2018-07-24T00:27:58.358Z,4.70
2018-07-24T00:30:26.266Z,4.97
2018-07-24T00:32:54.370Z,4.43
2018-07-24T00:35:22.494Z,4.53
2018-07-24T00:37:50.664Z,4.63
2018-07-24T00:40:18.816Z,4.70
2018-07-24T00:42:47.000Z,4.87
2018-07-24T00:45:15.138Z,4.67
2018-07-24T00:47:43.238Z,5.47
2018-07-24T00:50:11.352Z,4.63
2018-07-24T00:52:39.448Z,4.23
2018-07-24T00:55:07.622Z,4.30
2018-07-24T00:57:35.801Z,4.90
2018-07-24T01:00:04.260Z,4.67
2018-07-24T01:02:32.398Z,5.03
2018-07-24T01:05:00.521Z,4.80
2018-07-24T01:07:35.201Z,4.80
2018-07-24T01:10:03.636Z,5.17
2018-07-24T01:12:31.820Z,5.03
2018-07-24T01:15:00.013Z,4.60
2018-07-24T01:17:28.375Z,4.90
2018-07-24T01:19:56.519Z,5.73
2018-07-24T01:22:24.669Z,5.20
2018-07-24T01:24:52.769Z,5.30
2018-07-24T01:27:20.869Z,4.40
2018-07-24T01:29:48.991Z,4.20
2018-07-24T01:32:17.089Z,4.20
2018-07-24T01:34:45.313Z,4.80
2018-07-24T01:37:14.801Z,5.10
2018-07-24T01:39:48.125Z,5.03
2018-07-24T01:42:16.486Z,4.90
2018-07-24T01:44:44.897Z,5.33
2018-07-24T01:47:13.039Z,4.53
2018-07-24T01:49:41.201Z,4.43
2018-07-24T01:52:09.304Z,5.00
2018-07-24T01:54:37.593Z,4.80
2018-07-24T01:57:05.796Z,5.27
2018-07-24T01:59:33.917Z,5.00
2018-07-24T02:02:02.037Z,5.40
2018-07-24T02:04:30.023Z,4.80
2018-07-24T02:06:58.129Z,5.50
2018-07-24T02:09:26.228Z,5.27
2018-07-24T02:11:54.488Z,5.63
2018-07-24T02:14:22.682Z,5.10
2018-07-24T02:16:50.869Z,5.17
2018-07-24T02:19:19.012Z,5.30
2018-07-24T02:21:47.788Z,4.60
2018-07-24T02:24:16.113Z,4.73
2018-07-24T02:26:44.218Z,5.17
2018-07-24T02:29:12.314Z,5.23
2018-07-24T02:31:40.451Z,5.57
2018-07-24T02:34:08.879Z,5.10
2018-07-24T02:36:37.012Z,5.50
2018-07-24T02:39:09.510Z,5.53
2018-07-24T02:41:37.753Z,5.77
2018-07-24T02:44:06.268Z,5.87
2018-07-24T02:46:35.122Z,5.60
2018-07-24T02:49:04.590Z,5.13
2018-07-24T02:51:33.017Z,5.80
2018-07-24T02:54:01.121Z,5.77
2018-07-24T02:56:29.538Z,5.90
2018-07-24T02:58:57.641Z,5.50
2018-07-24T03:01:26.329Z,5.87
2018-07-24T03:03:54.612Z,6.87
2018-07-24T03:06:22.995Z,5.70
2018-07-24T03:08:51.347Z,6.03
2018-07-24T03:11:20.586Z,5.63
2018-07-24T03:13:48.873Z,7.60
2018-07-24T03:16:17.825Z,7.10
2018-07-24T03:18:46.004Z,6.37
2018-07-24T03:21:14.094Z,6.20
2018-07-24T03:23:42.252Z,7.07
2018-07-24T03:26:10.527Z,8.97
2018-07-24T03:28:38.893Z,7.93
2018-07-24T03:31:07.621Z,7.10
2018-07-24T03:33:35.792Z,7.63
2018-07-24T03:36:03.945Z,8.30
2018-07-24T03:38:33.011Z,7.10
2018-07-24T03:41:01.149Z,7.23
2018-07-24T03:43:29.281Z,7.67
2018-07-24T03:45:57.537Z,7.30
2018-07-24T03:48:25.866Z,7.27
2018-07-24T03:50:54.061Z,6.60
2018-07-24T03:53:22.650Z,7.07
2018-07-24T03:55:51.945Z,6.37
2018-07-24T03:58:20.129Z,7.60
2018-07-24T04:00:48.421Z,6.93
2018-07-24T04:03:17.431Z,6.93
2018-07-24T04:05:45.609Z,7.70
2018-07-24T04:08:13.803Z,6.97
2018-07-24T04:10:46.081Z,7.47
2018-07-24T04:13:14.189Z,7.43
2018-07-24T04:15:42.317Z,6.53
2018-07-24T04:18:10.494Z,6.93
2018-07-24T04:20:39.053Z,6.70
2018-07-24T04:23:06.941Z,6.50
2018-07-24T04:25:35.227Z,7.03
2018-07-24T04:28:03.533Z,6.90
2018-07-24T04:30:33.861Z,6.43
2018-07-24T04:33:02.826Z,6.20
2018-07-24T04:35:30.981Z,6.43
2018-07-24T04:37:59.117Z,6.20
2018-07-24T04:40:27.233Z,7.10
2018-07-24T04:42:55.459Z,6.20
2018-07-24T04:45:23.640Z,6.63
2018-07-24T04:47:51.779Z,6.90
2018-07-24T04:50:19.868Z,5.70
2018-07-24T04:52:47.966Z,5.33
2018-07-24T04:55:16.119Z,5.60
2018-07-24T04:57:44.065Z,5.80
2018-07-24T05:00:12.229Z,5.90
2018-07-24T05:02:41.113Z,5.40
2018-07-24T05:05:09.265Z,6.53
2018-07-24T05:07:37.482Z,6.90
2018-07-24T05:10:05.756Z,7.13
2018-07-24T05:12:34.122Z,6.37
2018-07-24T05:15:04.595Z,6.10
2018-07-24T05:17:32.745Z,5.67
2018-07-24T05:20:01.198Z,6.20
2018-07-24T05:22:29.359Z,6.10
2018-07-24T05:24:57.496Z,5.93
2018-07-24T05:27:25.699Z,6.87
2018-07-24T05:29:53.820Z,6.33
2018-07-24T05:32:22.042Z,6.93
2018-07-24T05:34:50.150Z,6.00
2018-07-24T05:37:18.340Z,5.83
2018-07-24T05:39:46.481Z,5.60
2018-07-24T05:42:14.661Z,5.30
2018-07-24T05:44:42.743Z,5.27
2018-07-24T05:47:10.844Z,5.10
2018-07-24T05:49:39.695Z,5.50
2018-07-24T05:52:07.830Z,4.83
2018-07-24T05:54:35.954Z,5.93
2018-07-24T05:57:04.309Z,4.67
2018-07-24T05:59:32.500Z,4.57
2018-07-24T06:02:01.573Z,4.20
2018-07-24T06:04:29.630Z,5.13
2018-07-24T06:06:58.132Z,5.37
2018-07-24T06:09:27.580Z,5.20
2018-07-24T06:11:56.043Z,4.97
2018-07-24T06:14:24.232Z,5.00
2018-07-24T06:16:52.468Z,5.30
2018-07-24T06:19:20.663Z,5.03
2018-07-24T06:21:48.787Z,4.10
2018-07-24T06:24:18.151Z,5.93
2018-07-24T06:26:46.306Z,4.53
2018-07-24T06:29:14.495Z,4.30
2018-07-24T06:31:42.584Z,4.60
2018-07-24T06:34:10.917Z,4.23
2018-07-24T06:36:39.074Z,4.10
2018-07-24T06:39:09.259Z,4.17
2018-07-24T06:41:37.762Z,3.43
2018-07-24T06:44:05.976Z,3.67
2018-07-24T06:46:34.110Z,4.03
2018-07-24T06:49:02.844Z,3.47
2018-07-24T06:51:31.114Z,2.80
2018-07-24T06:53:59.352Z,2.53
2018-07-24T06:56:27.783Z,2.50
2018-07-24T06:58:56.598Z,3.10
2018-07-24T07:01:24.700Z,3.47
2018-07-24T07:03:52.894Z,3.33
2018-07-24T07:06:21.144Z,2.63
2018-07-24T07:08:49.869Z,2.97
2018-07-24T07:11:18.104Z,2.30
2018-07-24T07:13:46.252Z,2.50
2018-07-24T07:16:14.624Z,2.53
2018-07-24T07:18:44.718Z,2.10
2018-07-24T07:21:12.988Z,2.73
2018-07-24T07:23:41.346Z,2.73
2018-07-24T07:26:10.105Z,2.77
2018-07-24T07:28:38.276Z,2.70
2018-07-24T07:31:07.458Z,2.40
2018-07-24T07:33:35.764Z,3.40
2018-07-24T07:36:03.908Z,2.20
2018-07-24T07:38:32.090Z,2.70
2018-07-24T07:41:00.254Z,2.53
2018-07-24T07:43:28.144Z,2.50
2018-07-24T07:45:56.229Z,2.60
2018-07-24T07:48:24.369Z,2.70
2018-07-24T07:50:52.802Z,2.83
2018-07-24T07:53:22.013Z,2.27
2018-07-24T07:55:50.230Z,2.80
2018-07-24T07:58:18.357Z,2.30
2018-07-24T08:00:46.526Z,2.53
2018-07-24T08:03:14.750Z,2.43
2018-07-24T08:05:43.086Z,2.80
2018-07-24T08:08:12.279Z,2.50
2018-07-24T08:10:40.560Z,2.27
2018-07-24T08:13:08.714Z,2.27
2018-07-24T08:15:37.435Z,2.40
2018-07-24T08:18:05.628Z,2.73
2018-07-24T08:20:33.721Z,2.87
2018-07-24T08:23:01.841Z,2.90
2018-07-24T08:25:30.023Z,2.20
2018-07-24T08:27:57.955Z,2.30
2018-07-24T08:30:26.289Z,2.03
2018-07-24T08:32:54.283Z,2.50
2018-07-24T08:35:22.381Z,2.13
2018-07-24T08:37:50.521Z,1.90
2018-07-24T08:40:18.702Z,1.70
2018-07-24T08:42:46.869Z,2.80
2018-07-24T08:45:14.990Z,2.40
2018-07-24T08:47:43.713Z,1.87
2018-07-24T08:50:13.166Z,2.03
2018-07-24T08:52:41.468Z,3.03
2018-07-24T08:55:10.039Z,2.10
2018-07-24T08:57:38.683Z,2.40
2018-07-24T09:00:06.809Z,2.03
2018-07-24T09:02:35.238Z,2.30
2018-07-24T09:05:03.521Z,2.30
2018-07-24T09:07:31.739Z,1.93
2018-07-24T09:09:59.836Z,2.40
2018-07-24T09:12:28.093Z,2.10
2018-07-24T09:14:56.229Z,2.27
2018-07-24T09:17:24.556Z,2.47
2018-07-24T09:19:52.743Z,2.20
2018-07-24T09:22:20.900Z,2.30
2018-07-24T09:24:49.114Z,2.83
2018-07-24T09:27:18.489Z,1.90
2018-07-24T09:29:47.289Z,2.07
2018-07-24T09:32:15.527Z,2.27
2018-07-24T09:34:43.867Z,2.37
2018-07-24T09:37:12.032Z,2.10
2018-07-24T09:39:40.214Z,2.53
2018-07-24T09:42:08.494Z,3.73
2018-07-24T09:44:36.790Z,1.50
2018-07-24T09:47:04.966Z,2.97
2018-07-24T09:49:33.194Z,2.10
2018-07-24T09:52:01.626Z,2.07
2018-07-24T09:54:29.812Z,2.00
2018-07-24T09:56:57.972Z,2.53
2018-07-24T09:59:26.245Z,2.73
2018-07-24T10:01:55.040Z,2.17
2018-07-24T10:04:23.170Z,2.33
2018-07-24T10:06:51.274Z,2.03
2018-07-24T10:09:19.427Z,2.20
2018-07-24T10:11:47.579Z,1.87
2018-07-24T10:14:15.760Z,2.30
2018-07-24T10:16:44.296Z,2.60
2018-07-24T10:19:12.505Z,2.10
2018-07-24T10:21:40.712Z,2.17
2018-07-24T10:24:08.908Z,2.50
2018-07-24T10:26:37.048Z,1.93
2018-07-24T10:29:05.339Z,2.30
2018-07-24T10:31:33.498Z,2.50
2018-07-24T10:34:01.623Z,2.13
2018-07-24T10:36:29.862Z,1.80
2018-07-24T10:38:58.024Z,2.20
2018-07-24T10:41:26.188Z,2.23
2018-07-24T10:43:54.464Z,2.20
2018-07-24T10:46:22.506Z,2.60
2018-07-24T10:48:50.618Z,2.27
2018-07-24T10:51:18.715Z,2.30
2018-07-24T10:53:46.822Z,2.50
2018-07-24T10:56:14.932Z,2.07
2018-07-24T11:01:13.318Z,2.80
2018-07-24T11:03:41.584Z,2.33
2018-07-24T11:06:09.808Z,2.20
2018-07-24T11:08:39.240Z,2.30
2018-07-24T11:11:07.515Z,2.17
2018-07-24T11:13:35.654Z,3.00
2018-07-24T11:16:03.856Z,2.40
2018-07-24T11:18:31.860Z,2.20
2018-07-24T11:21:00.312Z,2.40
2018-07-24T11:23:28.723Z,2.67
2018-07-24T11:25:56.912Z,2.30
2018-07-24T11:28:25.134Z,2.17
2018-07-24T11:30:53.374Z,1.87
2018-07-24T11:33:21.550Z,2.10
2018-07-24T11:35:49.880Z,2.50
2018-07-24T11:38:17.958Z,1.87
2018-07-24T11:40:46.287Z,2.60
2018-07-24T11:43:14.292Z,2.30
2018-07-24T11:45:42.450Z,2.10
2018-07-24T11:48:10.616Z,2.57
2018-07-24T11:50:38.846Z,2.53
2018-07-24T11:53:07.574Z,2.57
2018-07-24T11:55:35.707Z,2.40
2018-07-24T11:58:03.861Z,2.27
2018-07-24T12:00:32.044Z,2.37
2018-07-24T12:03:00.178Z,2.37
2018-07-24T12:05:28.611Z,2.50
2018-07-24T12:07:56.881Z,2.60
2018-07-24T12:10:25.005Z,2.17
2018-07-24T12:12:53.149Z,2.10
2018-07-24T12:15:21.253Z,2.57
2018-07-24T12:17:49.520Z,1.83
2018-07-24T12:20:18.948Z,2.03
2018-07-24T12:22:49.191Z,2.13
2018-07-24T12:25:17.355Z,2.10
2018-07-24T12:27:45.363Z,2.03
2018-07-24T12:30:13.525Z,2.00
2018-07-24T12:32:41.725Z,1.77
2018-07-24T12:35:10.173Z,1.97
2018-07-24T12:37:38.099Z,2.33
2018-07-24T12:40:08.123Z,2.37
2018-07-24T12:42:36.352Z,1.90
2018-07-24T12:45:04.649Z,2.17
2018-07-24T12:47:33.080Z,2.10
2018-07-24T12:50:01.242Z,2.60
2018-07-24T12:52:29.528Z,2.27
2018-07-24T12:54:57.609Z,2.07
2018-07-24T12:57:25.850Z,1.83
2018-07-24T12:59:54.135Z,1.80
2018-07-24T13:02:22.349Z,2.43
2018-07-24T13:04:50.594Z,2.53
2018-07-24T13:07:19.626Z,1.80
2018-07-24T13:09:47.770Z,2.27
2018-07-24T13:12:16.006Z,2.20
2018-07-24T13:14:44.354Z,2.00
2018-07-24T13:17:12.608Z,2.30
2018-07-24T13:19:40.870Z,2.10
2018-07-24T13:22:15.528Z,2.77
2018-07-24T13:24:43.686Z,2.70
2018-07-24T13:27:11.894Z,2.13
2018-07-24T13:29:40.086Z,2.20
2018-07-24T13:32:08.204Z,1.83
2018-07-24T13:34:36.328Z,1.87
2018-07-24T13:37:04.665Z,2.00
2018-07-24T13:39:33.601Z,1.97
2018-07-24T13:42:01.964Z,1.80
2018-07-24T13:44:30.221Z,2.00
2018-07-24T13:46:58.188Z,1.83
2018-07-24T13:49:26.361Z,1.77
2018-07-24T13:51:54.556Z,1.80
2018-07-24T13:54:22.552Z,2.13
2018-07-24T13:56:50.950Z,1.80
2018-07-24T13:59:19.079Z,1.63
2018-07-24T14:01:47.026Z,2.00
2018-07-24T14:04:15.179Z,2.23
2018-07-24T14:06:43.570Z,1.90
2018-07-24T14:09:12.672Z,1.73
2018-07-24T14:11:41.427Z,2.07
2018-07-24T14:14:10.047Z,1.53
2018-07-24T14:16:38.250Z,2.10
2018-07-24T14:19:06.576Z,2.07
2018-07-24T14:21:34.885Z,1.90
2018-07-24T14:24:03.352Z,1.60
2018-07-24T14:26:31.498Z,1.70
2018-07-24T14:29:00.120Z,1.67
2018-07-24T14:31:28.400Z,1.90
2018-07-24T14:33:56.640Z,8.23
2018-07-24T14:36:25.206Z,1.90
2018-07-24T14:38:53.780Z,2.30
2018-07-24T14:41:21.900Z,1.67
2018-07-24T14:43:50.240Z,1.80
2018-07-24T14:46:18.823Z,1.87
2018-07-24T14:48:46.941Z,2.20
2018-07-24T14:51:15.068Z,2.20
2018-07-24T14:53:43.731Z,2.10
2018-07-24T14:56:11.883Z,2.37
2018-07-24T14:58:40.283Z,2.43
2018-07-24T15:01:09.417Z,2.63
2018-07-24T15:03:37.590Z,2.00
2018-07-24T15:06:05.931Z,2.33
2018-07-24T15:08:34.085Z,2.10
2018-07-24T15:11:03.077Z,2.17
2018-07-24T15:13:31.183Z,2.60
2018-07-24T15:15:59.659Z,1.87
2018-07-24T15:18:27.959Z,1.90
2018-07-24T15:20:55.889Z,2.30
2018-07-24T15:23:24.040Z,1.90
2018-07-24T15:25:52.361Z,2.40
2018-07-24T15:28:20.535Z,2.10
2018-07-24T15:30:48.834Z,1.93
2018-07-24T15:33:16.947Z,2.57
2018-07-24T15:35:45.078Z,2.00
2018-07-24T15:38:14.271Z,1.80
2018-07-24T15:40:42.433Z,2.00
2018-07-24T15:43:10.628Z,2.23
2018-07-24T15:45:39.279Z,2.10
2018-07-24T15:48:07.557Z,2.40
2018-07-24T15:50:35.679Z,2.17
2018-07-24T15:53:03.817Z,1.87
2018-07-24T15:55:32.050Z,2.37
2018-07-24T15:58:00.244Z,2.20
2018-07-24T16:00:29.621Z,1.90
2018-07-24T16:02:59.602Z,1.93
2018-07-24T16:05:27.815Z,1.63
2018-07-24T16:07:55.988Z,2.10
2018-07-24T16:10:24.263Z,2.10
2018-07-24T16:12:52.412Z,1.90
2018-07-24T16:15:20.572Z,2.23
2018-07-24T16:17:48.636Z,2.30
2018-07-24T16:20:16.724Z,2.90
2018-07-24T16:22:44.946Z,1.93
2018-07-24T16:25:13.254Z,2.20
2018-07-24T16:27:41.283Z,2.13
2018-07-24T16:30:09.431Z,2.30
2018-07-24T16:32:37.748Z,2.70
2018-07-24T16:35:06.054Z,2.47
2018-07-24T16:37:34.286Z,1.90
2018-07-24T16:40:02.638Z,2.07
2018-07-24T16:42:30.876Z,1.90
2018-07-24T16:44:59.064Z,1.93
2018-07-24T16:47:27.389Z,2.20
2018-07-24T16:49:55.683Z,2.60
2018-07-24T16:52:23.916Z,2.13
2018-07-24T16:54:52.308Z,2.10
2018-07-24T16:57:20.618Z,2.10
2018-07-24T16:59:49.580Z,2.60
2018-07-24T17:02:17.916Z,2.30
2018-07-24T17:04:46.307Z,2.03
2018-07-24T17:07:14.562Z,2.20
2018-07-24T17:09:43.244Z,2.70
2018-07-24T17:12:12.622Z,1.93
2018-07-24T17:14:40.909Z,2.50
2018-07-24T17:17:09.300Z,2.67
2018-07-24T17:19:37.737Z,2.70
2018-07-24T17:22:07.580Z,2.60
2018-07-24T17:24:37.170Z,2.70
2018-07-24T17:27:05.563Z,2.63
2018-07-24T17:29:33.936Z,2.00
2018-07-24T17:32:02.207Z,2.70
2018-07-24T17:34:30.352Z,1.80
2018-07-24T17:36:58.989Z,2.23
2018-07-24T17:39:27.538Z,2.40
2018-07-24T17:41:55.783Z,1.90
2018-07-24T17:44:24.115Z,2.60
2018-07-24T17:46:53.880Z,2.50
2018-07-24T17:49:22.260Z,1.97
2018-07-24T17:51:50.544Z,2.83
2018-07-24T17:54:18.936Z,2.93
2018-07-24T17:56:47.300Z,2.10
2018-07-24T17:59:15.597Z,2.20
2018-07-24T18:01:43.824Z,2.37
2018-07-24T18:04:12.058Z,2.33
2018-07-24T18:06:40.307Z,2.37
2018-07-24T18:09:10.396Z,2.40
2018-07-24T18:11:38.685Z,2.80
2018-07-24T18:14:06.884Z,3.33
2018-07-24T18:16:35.312Z,2.50
2018-07-24T18:19:04.688Z,2.43
2018-07-24T18:21:32.903Z,2.60
2018-07-24T18:24:02.529Z,3.10
2018-07-24T18:26:30.852Z,2.87
2018-07-24T18:28:59.131Z,2.40
2018-07-24T18:31:27.527Z,2.53
2018-07-24T18:33:55.687Z,2.47
2018-07-24T18:36:23.895Z,3.07
2018-07-24T18:38:52.542Z,2.40
2018-07-24T18:41:20.473Z,2.70
2018-07-24T18:43:49.158Z,2.37
2018-07-24T18:46:17.307Z,2.63
2018-07-24T18:48:45.457Z,2.27
2018-07-24T18:51:13.579Z,3.10
2018-07-24T18:53:41.723Z,2.60
2018-07-24T18:56:09.857Z,2.50
2018-07-24T18:58:38.584Z,2.80
2018-07-24T19:01:06.873Z,3.00
2018-07-24T19:03:35.113Z,3.17
2018-07-24T19:06:03.648Z,2.47
2018-07-24T19:08:32.929Z,2.70
2018-07-24T19:11:01.435Z,3.07
2018-07-24T19:13:29.717Z,2.87
2018-07-24T19:15:58.201Z,3.17
2018-07-24T19:18:26.685Z,3.27
2018-07-24T19:20:55.479Z,3.27
2018-07-24T19:23:23.713Z,3.53
2018-07-24T19:25:51.857Z,3.20
2018-07-24T19:28:20.275Z,3.10
2018-07-24T19:30:48.880Z,2.93
2018-07-24T19:33:17.473Z,3.90
2018-07-24T19:35:47.010Z,2.97
2018-07-24T19:38:15.607Z,3.00
2018-07-24T19:40:44.415Z,3.00
2018-07-24T19:43:12.998Z,3.40
2018-07-24T19:45:42.079Z,3.07
2018-07-24T19:48:10.524Z,2.80
2018-07-24T19:50:39.385Z,2.97
2018-07-24T19:53:08.559Z,3.00
2018-07-24T19:55:37.864Z,3.10
2018-07-24T19:58:06.192Z,3.20
2018-07-24T20:00:34.729Z,3.10
2018-07-24T20:03:03.314Z,3.50
2018-07-24T20:05:32.722Z,2.73
2018-07-24T20:08:01.310Z,2.90
2018-07-24T20:10:30.104Z,3.20
2018-07-24T20:12:58.791Z,3.10
2018-07-24T20:15:27.592Z,3.57
2018-07-24T20:17:55.939Z,2.63
2018-07-24T20:20:24.628Z,2.83
2018-07-24T20:22:52.954Z,2.87
2018-07-24T20:25:22.741Z,3.10
2018-07-24T20:27:51.215Z,3.07
2018-07-24T20:30:19.420Z,2.90
2018-07-24T20:32:47.699Z,2.73
2018-07-24T20:35:16.028Z,3.47
2018-07-24T20:37:44.213Z,3.53
2018-07-24T20:40:12.448Z,2.83
2018-07-24T20:42:40.671Z,2.80
2018-07-24T20:45:09.014Z,3.70
2018-07-24T20:47:37.341Z,3.23
2018-07-24T20:50:05.732Z,3.00
2018-07-24T20:52:34.015Z,3.10
2018-07-24T20:55:02.247Z,3.00
2018-07-24T20:57:30.963Z,2.90
2018-07-24T20:59:59.544Z,3.10
2018-07-24T21:02:27.828Z,3.27
2018-07-24T21:04:56.274Z,2.60
2018-07-24T21:07:24.454Z,3.27
2018-07-24T21:09:52.677Z,2.97
2018-07-24T21:12:21.038Z,3.10
2018-07-24T21:14:49.440Z,3.00
2018-07-24T21:17:17.767Z,2.87
2018-07-24T21:19:45.920Z,2.67
2018-07-24T21:22:13.933Z,2.87
2018-07-24T21:24:42.233Z,3.17
2018-07-24T21:27:10.433Z,3.00
2018-07-24T21:29:38.717Z,2.90
2018-07-24T21:32:06.893Z,3.00
2018-07-24T21:34:35.247Z,2.63
2018-07-24T21:37:03.414Z,2.73
2018-07-24T21:39:31.595Z,2.43
2018-07-24T21:41:59.866Z,2.83
2018-07-24T21:44:28.019Z,2.60
2018-07-24T21:46:56.535Z,2.77
2018-07-24T21:49:24.667Z,2.63
2018-07-24T21:51:52.912Z,2.47
2018-07-24T21:54:21.030Z,3.20
2018-07-24T21:56:49.206Z,3.00
2018-07-24T21:59:17.460Z,2.40
2018-07-24T22:01:45.607Z,2.80
2018-07-24T22:04:13.725Z,2.93
2018-07-24T22:06:41.886Z,3.57
2018-07-24T22:09:10.181Z,2.80
2018-07-24T22:11:38.277Z,2.60
2018-07-24T22:14:06.469Z,2.63
2018-07-24T22:16:34.395Z,2.70
2018-07-24T22:19:02.618Z,2.70
2018-07-24T22:21:30.581Z,2.60
2018-07-24T22:23:58.734Z,2.93
2018-07-24T22:26:26.900Z,2.80
2018-07-24T22:28:55.027Z,2.20
2018-07-24T22:31:23.243Z,2.63
2018-07-24T22:33:51.418Z,2.53
2018-07-24T22:36:19.836Z,2.60
2018-07-24T22:38:47.967Z,4.57
2018-07-24T22:41:16.131Z,2.23
2018-07-24T22:43:44.297Z,2.40
2018-07-24T22:46:12.301Z,2.40
2018-07-24T22:48:41.080Z,2.70
2018-07-24T22:51:09.197Z,2.40
2018-07-24T22:53:37.506Z,2.50
2018-07-24T22:56:05.635Z,2.50
2018-07-24T22:58:33.819Z,2.80
2018-07-24T23:01:01.997Z,2.73
2018-07-24T23:03:30.166Z,2.70
2018-07-24T23:05:58.337Z,2.87
2018-07-24T23:08:26.579Z,2.60
2018-07-24T23:10:54.763Z,2.67
2018-07-24T23:13:22.855Z,2.50
2018-07-24T23:15:50.825Z,2.90
2018-07-24T23:18:18.963Z,3.63
2018-07-24T23:20:47.153Z,3.33
2018-07-24T23:23:15.303Z,3.30
2018-07-24T23:25:43.415Z,3.10
2018-07-24T23:28:11.655Z,3.77
2018-07-24T23:30:39.782Z,3.17
2018-07-24T23:33:08.059Z,3.40
2018-07-24T23:35:36.391Z,2.40
2018-07-24T23:38:04.949Z,2.80
2018-07-24T23:40:33.085Z,2.90
2018-07-24T23:43:01.229Z,3.00
2018-07-24T23:45:29.341Z,3.17
2018-07-24T23:47:57.497Z,3.07
2018-07-24T23:50:25.613Z,3.27
2018-07-24T23:52:53.748Z,2.70
2018-07-24T23:55:21.851Z,3.13
2018-07-24T23:57:49.933Z,3.10
